Time;durP1;ratioP1;P1;durP2;ratioP2;P2;SDS_P1;SDS_P2;PMS_P1;PMS_P2;Temp;Humidity;BMP_temperature;BMP_pressure;BME280_temperature;BME280_humidity;BME280_pressure;Samples;Min_cycle;Max_cycle;Signal;HPM_P1;HPM_P2
2023/11/26 00:02:04;;;;;;;1.20;1.10;;;4.60;99.90;;;;;;5057896;28;20210;-67
2023/11/26 00:04:31;;;;;;;1.10;0.80;;;4.60;99.90;;;;;;5055339;28;20657;-68
2023/11/26 00:06:59;;;;;;;0.93;0.90;;;4.60;99.90;;;;;;5045819;28;20230;-67
2023/11/26 00:09:26;;;;;;;1.07;1.00;;;4.60;99.90;;;;;;5055494;28;20229;-67
2023/11/26 00:11:54;;;;;;;0.97;0.70;;;4.60;99.90;;;;;;5059395;28;20203;-67
2023/11/26 00:14:21;;;;;;;0.70;0.70;;;4.60;99.90;;;;;;5046866;28;20217;-66
2023/11/26 00:16:48;;;;;;;1.80;0.90;;;4.60;99.90;;;;;;5051072;28;20195;-67
2023/11/26 00:19:18;;;;;;;2.17;1.20;;;4.70;99.90;;;;;;5050541;28;20585;-69
2023/11/26 00:21:45;;;;;;;1.30;1.20;;;4.80;99.90;;;;;;5049672;28;20213;-69
2023/11/26 00:24:12;;;;;;;2.97;1.00;;;4.80;99.90;;;;;;5053278;28;20282;-69
2023/11/26 00:26:39;;;;;;;1.23;0.60;;;4.80;99.90;;;;;;5053949;28;20228;-69
2023/11/26 00:29:08;;;;;;;0.83;0.80;;;4.80;99.90;;;;;;5053788;28;20190;-69
2023/11/26 00:31:35;;;;;;;1.03;0.90;;;4.80;99.90;;;;;;5060249;28;20646;-70
2023/11/26 00:34:02;;;;;;;0.60;0.60;;;4.80;99.90;;;;;;5057444;28;20190;-70
2023/11/26 00:36:29;;;;;;;0.60;0.60;;;4.80;99.90;;;;;;5054560;28;20225;-70
2023/11/26 00:38:57;;;;;;;1.23;0.70;;;4.80;99.90;;;;;;5054368;28;20284;-71
2023/11/26 00:41:24;;;;;;;1.03;0.40;;;4.80;99.90;;;;;;5047128;28;20293;-70
2023/11/26 00:43:51;;;;;;;1.57;0.60;;;4.80;99.90;;;;;;5054936;28;20202;-69
2023/11/26 00:46:19;;;;;;;1.17;0.77;;;4.90;99.90;;;;;;5060751;28;20193;-70
2023/11/26 00:48:46;;;;;;;0.97;0.77;;;4.90;99.90;;;;;;5045863;28;20290;-69
2023/11/26 00:51:19;;;;;;;0.43;0.43;;;4.90;99.90;;;;;;5062789;28;20194;-69
2023/11/26 00:53:50;;;;;;;0.40;0.40;;;4.90;99.90;;;;;;5057566;28;20254;-69
2023/11/26 00:56:17;;;;;;;0.40;0.40;;;4.90;99.90;;;;;;5050239;28;20195;-70
2023/11/26 00:58:44;;;;;;;0.40;0.40;;;4.80;99.90;;;;;;5058393;28;20281;-70
2023/11/26 01:01:11;;;;;;;0.50;0.50;;;4.90;99.90;;;;;;5060854;28;20641;-71
2023/11/26 01:03:40;;;;;;;0.93;0.50;;;4.90;99.90;;;;;;5046308;28;20207;-70
2023/11/26 01:06:08;;;;;;;0.73;0.50;;;4.90;99.90;;;;;;5050800;28;20209;-66
2023/11/26 01:08:35;;;;;;;0.50;0.50;;;4.90;99.90;;;;;;5053927;28;20686;-66
2023/11/26 01:11:05;;;;;;;0.50;0.50;;;4.90;99.90;;;;;;5051161;28;20218;-67
2023/11/26 01:13:32;;;;;;;0.40;0.40;;;4.80;99.90;;;;;;5057437;28;20201;-67
2023/11/26 01:16:00;;;;;;;0.30;0.30;;;4.70;99.90;;;;;;5051728;28;20226;-67
2023/11/26 01:18:27;;;;;;;0.40;0.33;;;4.70;99.90;;;;;;5056018;28;20605;-67
2023/11/26 01:20:55;;;;;;;0.47;0.40;;;4.70;99.90;;;;;;5058737;28;20302;-67
2023/11/26 01:23:22;;;;;;;0.43;0.43;;;4.60;99.90;;;;;;5048254;28;20206;-67
2023/11/26 01:25:50;;;;;;;0.50;0.50;;;4.60;99.90;;;;;;5052898;28;20199;-67
2023/11/26 01:28:17;;;;;;;0.47;0.47;;;4.70;99.90;;;;;;5057492;28;20197;-67
2023/11/26 01:30:45;;;;;;;1.43;0.50;;;4.80;99.90;;;;;;5049041;28;20187;-67
2023/11/26 01:33:12;;;;;;;0.43;0.43;;;4.70;99.90;;;;;;5062670;28;20207;-67
2023/11/26 01:35:39;;;;;;;0.70;0.60;;;4.70;99.90;;;;;;5056907;28;20653;-67
2023/11/26 01:38:07;;;;;;;1.90;0.70;;;4.70;99.90;;;;;;5047411;28;20276;-70
2023/11/26 01:40:37;;;;;;;0.83;0.50;;;4.80;99.90;;;;;;5060617;28;20272;-69
2023/11/26 01:43:04;;;;;;;0.57;0.50;;;4.80;99.90;;;;;;5057303;28;20759;-68
2023/11/26 01:45:32;;;;;;;0.97;0.60;;;4.80;99.90;;;;;;5054409;28;20660;-68
2023/11/26 01:48:00;;;;;;;2.20;0.63;;;4.90;99.90;;;;;;5059850;28;20723;-68
2023/11/26 01:50:29;;;;;;;0.83;0.50;;;4.90;99.90;;;;;;5058528;28;20197;-69
2023/11/26 01:52:58;;;;;;;0.60;0.60;;;4.90;99.90;;;;;;5061951;28;20630;-70
2023/11/26 01:55:27;;;;;;;1.10;0.50;;;4.90;99.90;;;;;;5064070;28;20646;-68
2023/11/26 01:57:54;;;;;;;0.30;0.30;;;4.90;99.90;;;;;;5049834;28;20711;-68
2023/11/26 02:00:22;;;;;;;0.40;0.40;;;4.90;99.90;;;;;;5056491;28;20225;-67
2023/11/26 02:02:49;;;;;;;0.30;0.30;;;4.80;99.90;;;;;;5059149;28;20211;-68
2023/11/26 02:05:17;;;;;;;0.50;0.50;;;4.80;99.90;;;;;;5048873;28;20659;-69
2023/11/26 02:07:44;;;;;;;0.40;0.40;;;4.80;99.90;;;;;;5057752;28;20661;-69
2023/11/26 02:10:13;;;;;;;0.30;0.30;;;4.80;99.90;;;;;;5056295;28;20215;-69
2023/11/26 02:13:01;;;;;;;0.50;0.50;;;4.80;99.90;;;;;;5051906;28;20206;-67
2023/11/26 02:15:29;;;;;;;0.47;0.47;;;4.80;99.90;;;;;;5071074;28;20206;-67
2023/11/26 02:17:56;;;;;;;0.80;0.60;;;4.80;99.90;;;;;;5054935;28;20226;-69
2023/11/26 02:20:23;;;;;;;1.47;0.90;;;4.80;99.90;;;;;;5063850;28;20573;-69
2023/11/26 02:22:50;;;;;;;0.90;0.90;;;4.80;99.90;;;;;;5059117;28;20201;-69
2023/11/26 02:25:20;;;;;;;0.70;0.70;;;4.80;99.90;;;;;;5051633;28;20556;-69
2023/11/26 02:27:49;;;;;;;0.80;0.70;;;4.70;99.90;;;;;;5058339;28;20701;-70
2023/11/26 02:30:20;;;;;;;0.60;0.60;;;4.70;99.90;;;;;;5063057;28;20274;-70
2023/11/26 02:32:48;;;;;;;0.60;0.60;;;4.70;99.90;;;;;;5053832;28;20199;-69
2023/11/26 02:35:15;;;;;;;0.77;0.67;;;4.70;99.90;;;;;;5061789;28;20205;-70
2023/11/26 02:37:42;;;;;;;0.73;0.60;;;4.70;99.90;;;;;;5057538;28;20255;-70
2023/11/26 02:40:10;;;;;;;0.77;0.77;;;4.70;99.90;;;;;;5053686;28;20211;-69
2023/11/26 02:42:39;;;;;;;0.70;0.70;;;4.70;99.90;;;;;;5058577;28;20201;-70
2023/11/26 02:45:09;;;;;;;0.70;0.50;;;4.80;99.90;;;;;;5054777;28;20192;-70
2023/11/26 02:47:36;;;;;;;0.70;0.70;;;4.80;99.90;;;;;;5090860;28;20260;-69
2023/11/26 02:50:04;;;;;;;0.90;0.60;;;4.70;99.90;;;;;;5059182;28;20541;-69
2023/11/26 02:52:31;;;;;;;0.50;0.50;;;4.70;99.90;;;;;;5052634;28;20199;-70
2023/11/26 02:54:58;;;;;;;0.70;0.70;;;4.70;99.90;;;;;;5053509;28;20209;-70
2023/11/26 02:57:25;;;;;;;0.60;0.60;;;4.70;99.90;;;;;;5058571;28;20247;-68
2023/11/26 02:59:56;;;;;;;0.57;0.57;;;4.70;99.90;;;;;;5048267;28;20217;-68
2023/11/26 03:02:22;;;;;;;0.80;0.60;;;4.70;99.90;;;;;;5064296;28;20563;-68
2023/11/26 03:04:53;;;;;;;0.50;0.50;;;4.70;99.90;;;;;;5061127;28;20220;-68
2023/11/26 03:07:21;;;;;;;0.70;0.60;;;4.70;99.90;;;;;;5051411;28;20201;-68
2023/11/26 03:15:20;;;;;;;1.00;0.70;;;4.60;99.90;;;;;;5051964;28;20229;-70
2023/11/26 03:17:49;;;;;;;0.73;0.60;;;4.60;99.90;;;;;;5053523;28;20204;-71
2023/11/26 03:20:19;;;;;;;0.80;0.60;;;4.60;99.90;;;;;;5049209;28;20226;-70
2023/11/26 03:22:46;;;;;;;0.50;0.50;;;4.60;99.90;;;;;;5063429;28;20244;-70
2023/11/26 03:25:13;;;;;;;0.60;0.60;;;4.50;99.90;;;;;;5050187;28;20197;-70
2023/11/26 03:27:40;;;;;;;0.87;0.87;;;4.50;99.90;;;;;;5049881;28;20633;-71
2023/11/26 03:30:09;;;;;;;0.90;0.50;;;4.50;99.90;;;;;;5063376;28;20598;-71
2023/11/26 03:32:38;;;;;;;1.70;0.70;;;4.50;99.90;;;;;;5069213;28;20197;-71
2023/11/26 03:35:06;;;;;;;3.13;0.60;;;4.50;99.90;;;;;;5046241;28;20245;-72
2023/11/26 03:37:34;;;;;;;0.50;0.50;;;4.40;99.90;;;;;;5058050;28;20194;-72
2023/11/26 03:40:01;;;;;;;0.70;0.70;;;4.40;99.90;;;;;;5058635;28;20248;-69
2023/11/26 03:42:29;;;;;;;0.60;0.60;;;4.40;99.90;;;;;;5049224;28;20572;-71
2023/11/26 03:44:56;;;;;;;0.47;0.47;;;4.40;99.90;;;;;;5053785;28;20201;-71
2023/11/26 03:47:23;;;;;;;0.83;0.50;;;4.40;99.90;;;;;;5055890;28;20198;-68
2023/11/26 03:49:52;;;;;;;0.47;0.47;;;4.40;99.90;;;;;;5046480;28;20209;-68
2023/11/26 03:52:19;;;;;;;0.50;0.50;;;4.40;99.90;;;;;;5068711;28;20193;-69
2023/11/26 03:54:47;;;;;;;0.60;0.40;;;4.40;99.90;;;;;;5066445;28;20276;-69
2023/11/26 03:57:14;;;;;;;0.43;0.43;;;4.30;99.90;;;;;;5049237;28;20673;-69
2023/11/26 03:59:43;;;;;;;0.57;0.50;;;4.40;99.90;;;;;;5061883;28;20193;-70
2023/11/26 04:02:10;;;;;;;0.50;0.50;;;4.40;99.90;;;;;;5058003;28;20280;-70
2023/11/26 04:04:38;;;;;;;0.50;0.50;;;4.40;99.90;;;;;;5047502;28;20256;-69
2023/11/26 04:07:06;;;;;;;0.60;0.60;;;4.40;99.90;;;;;;5056344;28;20198;-70
2023/11/26 04:09:35;;;;;;;0.53;0.53;;;4.40;99.90;;;;;;5058369;28;20198;-70
2023/11/26 04:12:02;;;;;;;1.30;0.67;;;4.40;99.90;;;;;;5055856;28;20202;-70
2023/11/26 04:14:32;;;;;;;0.50;0.50;;;4.40;99.90;;;;;;5059035;28;20657;-70
2023/11/26 04:16:59;;;;;;;0.60;0.60;;;4.40;99.90;;;;;;5048241;28;20663;-70
2023/11/26 04:19:26;;;;;;;0.43;0.30;;;4.30;99.90;;;;;;5056228;28;20268;-70
2023/11/26 04:21:53;;;;;;;0.67;0.67;;;4.30;99.90;;;;;;5057259;28;20213;-70
2023/11/26 04:24:21;;;;;;;0.70;0.70;;;4.30;99.90;;;;;;5046125;28;20187;-69
2023/11/26 04:26:48;;;;;;;1.27;0.90;;;4.30;99.90;;;;;;5064459;28;20194;-69
2023/11/26 04:29:16;;;;;;;0.80;0.70;;;4.30;99.90;;;;;;5069308;28;20198;-68
2023/11/26 04:31:43;;;;;;;0.63;0.63;;;4.30;99.90;;;;;;5051437;28;20277;-68
2023/11/26 04:34:10;;;;;;;1.87;0.60;;;4.30;99.90;;;;;;5062883;28;20536;-68
2023/11/26 04:36:37;;;;;;;1.80;0.90;;;4.30;99.90;;;;;;5057122;28;20634;-68
2023/11/26 04:39:08;;;;;;;1.27;0.73;;;4.20;99.90;;;;;;5057671;28;20718;-68
2023/11/26 04:41:36;;;;;;;0.50;0.50;;;4.30;99.90;;;;;;5055464;28;20225;-68
2023/11/26 04:44:04;;;;;;;1.00;0.90;;;4.20;99.90;;;;;;5053400;28;20248;-68
2023/11/26 04:46:31;;;;;;;0.80;0.60;;;4.20;99.90;;;;;;5054088;28;20205;-68
2023/11/26 04:48:58;;;;;;;0.60;0.60;;;4.30;99.90;;;;;;5053111;28;20225;-69
2023/11/26 04:51:25;;;;;;;0.57;0.57;;;4.30;99.90;;;;;;5048074;28;20677;-68
2023/11/26 04:53:53;;;;;;;1.97;0.60;;;4.30;99.90;;;;;;5052134;28;20202;-69
2023/11/26 04:56:20;;;;;;;0.50;0.50;;;4.30;99.90;;;;;;5053612;28;20732;-69
2023/11/26 04:58:49;;;;;;;0.87;0.60;;;4.30;99.90;;;;;;5039785;28;20289;-68
2023/11/26 05:01:16;;;;;;;0.50;0.50;;;4.30;99.90;;;;;;5048062;28;20263;-72
2023/11/26 05:03:43;;;;;;;1.73;0.87;;;4.30;99.90;;;;;;5060657;28;20206;-72
2023/11/26 05:06:13;;;;;;;1.47;0.70;;;5.20;99.90;;;;;;5050477;28;20197;-72
2023/11/26 05:08:42;;;;;;;2.07;0.70;;;4.30;99.90;;;;;;5060814;28;20284;-72
2023/11/26 05:11:09;;;;;;;0.60;0.60;;;4.20;99.90;;;;;;5058532;28;20239;-70
2023/11/26 05:13:37;;;;;;;0.60;0.60;;;4.20;99.90;;;;;;5052606;28;20194;-71
2023/11/26 05:16:06;;;;;;;1.43;0.70;;;4.30;99.90;;;;;;5062148;28;20250;-70
2023/11/26 05:18:33;;;;;;;0.70;0.70;;;4.30;99.90;;;;;;5050234;28;20280;-71
2023/11/26 05:21:00;;;;;;;0.80;0.80;;;4.30;99.90;;;;;;5049848;28;20307;-71
2023/11/26 05:23:27;;;;;;;0.73;0.60;;;4.20;99.90;;;;;;5054182;28;20270;-72
2023/11/26 05:25:54;;;;;;;0.60;0.53;;;4.20;99.90;;;;;;5053872;28;20194;-72
2023/11/26 05:28:21;;;;;;;0.50;0.50;;;4.20;99.90;;;;;;5059618;28;20833;-68
2023/11/26 05:30:48;;;;;;;1.17;0.70;;;4.20;99.90;;;;;;5067817;28;20192;-68
2023/11/26 05:33:17;;;;;;;0.60;0.60;;;4.20;99.90;;;;;;5045155;28;20209;-69
2023/11/26 05:35:44;;;;;;;0.67;0.63;;;4.20;99.90;;;;;;5065596;28;20198;-67
2023/11/26 05:38:11;;;;;;;0.70;0.70;;;4.10;99.90;;;;;;5062398;28;20664;-67
2023/11/26 05:40:39;;;;;;;0.80;0.77;;;4.10;99.90;;;;;;5049543;28;20755;-68
2023/11/26 05:43:06;;;;;;;0.70;0.70;;;4.10;99.90;;;;;;5053617;28;20292;-67
2023/11/26 05:45:33;;;;;;;1.00;0.90;;;4.20;99.90;;;;;;5052768;28;20194;-68
2023/11/26 05:48:00;;;;;;;1.27;0.90;;;4.20;99.90;;;;;;5070099;28;20230;-68
2023/11/26 05:50:29;;;;;;;1.00;0.90;;;4.20;99.90;;;;;;5068663;28;20189;-68
2023/11/26 05:52:56;;;;;;;1.13;0.90;;;5.30;99.90;;;;;;5061894;28;20834;-69
2023/11/26 05:55:24;;;;;;;1.20;0.97;;;4.20;99.90;;;;;;5056770;28;20266;-71
2023/11/26 05:57:50;;;;;;;0.83;0.83;;;4.20;99.90;;;;;;5059058;28;20229;-70
2023/11/26 06:00:20;;;;;;;0.90;0.90;;;4.20;99.90;;;;;;5051161;28;20752;-69
2023/11/26 06:02:50;;;;;;;0.70;0.70;;;4.20;99.90;;;;;;5053599;28;20205;-70
2023/11/26 06:05:17;;;;;;;0.80;0.80;;;4.10;99.90;;;;;;5058809;28;20197;-68
2023/11/26 06:07:46;;;;;;;1.43;0.80;;;4.10;99.90;;;;;;5050708;28;20660;-72
2023/11/26 06:10:13;;;;;;;0.80;0.80;;;4.10;99.90;;;;;;5058330;28;20194;-72
2023/11/26 06:12:40;;;;;;;1.13;0.90;;;4.10;99.90;;;;;;5061162;28;20682;-72
2023/11/26 06:15:09;;;;;;;1.10;0.77;;;4.20;99.90;;;;;;5045567;28;20252;-71
2023/11/26 06:17:36;;;;;;;1.10;0.80;;;4.20;99.90;;;;;;5056511;28;20237;-72
2023/11/26 06:20:04;;;;;;;0.97;0.70;;;4.10;99.90;;;;;;5083821;28;20669;-71
2023/11/26 06:22:32;;;;;;;0.80;0.80;;;4.10;99.90;;;;;;5050943;28;20730;-72
2023/11/26 06:25:00;;;;;;;1.97;1.00;;;4.00;99.90;;;;;;5058182;28;20190;-71
2023/11/26 06:27:27;;;;;;;0.80;0.80;;;4.00;99.90;;;;;;5061780;28;20189;-69
2023/11/26 06:29:54;;;;;;;1.10;0.90;;;4.00;99.90;;;;;;5050896;28;20554;-69
2023/11/26 06:32:21;;;;;;;1.30;0.87;;;4.00;99.90;;;;;;5061022;28;20572;-70
2023/11/26 06:34:49;;;;;;;1.10;0.93;;;4.00;99.90;;;;;;5047717;28;20574;-70
2023/11/26 06:37:16;;;;;;;0.73;0.70;;;4.00;99.90;;;;;;5054608;28;20200;-69
2023/11/26 06:39:43;;;;;;;0.80;0.80;;;4.00;99.90;;;;;;5047629;28;20277;-69
2023/11/26 06:42:11;;;;;;;2.30;1.00;;;4.00;99.90;;;;;;5051250;28;20209;-69
2023/11/26 06:44:38;;;;;;;1.67;1.17;;;4.00;99.90;;;;;;5057115;28;20269;-69
2023/11/26 06:47:06;;;;;;;1.47;1.37;;;4.00;99.90;;;;;;5054654;28;20190;-71
2023/11/26 06:49:33;;;;;;;1.47;0.90;;;4.00;99.90;;;;;;5048609;28;20233;-69
2023/11/26 06:52:00;;;;;;;1.90;1.00;;;4.00;99.90;;;;;;5060314;28;20687;-69
2023/11/26 06:54:27;;;;;;;1.60;1.07;;;4.00;99.90;;;;;;5056203;28;20194;-70
2023/11/26 06:56:54;;;;;;;0.90;0.90;;;4.00;99.90;;;;;;5056211;28;20190;-71
2023/11/26 06:59:23;;;;;;;1.60;1.00;;;4.10;99.90;;;;;;5061945;28;20217;-72
2023/11/26 07:01:50;;;;;;;2.60;1.20;;;4.10;99.90;;;;;;5058312;28;20637;-70
2023/11/26 07:04:17;;;;;;;0.80;0.80;;;4.00;99.90;;;;;;5047031;28;20247;-69
2023/11/26 07:06:44;;;;;;;2.47;0.93;;;4.00;99.90;;;;;;5059888;28;20620;-68
2023/11/26 07:09:11;;;;;;;1.10;1.00;;;4.00;99.90;;;;;;5059907;28;20217;-68
2023/11/26 07:11:38;;;;;;;0.80;0.80;;;4.00;99.90;;;;;;5051394;28;20288;-68
2023/11/26 07:14:06;;;;;;;1.00;0.90;;;4.00;99.90;;;;;;5063900;28;20244;-69
2023/11/26 07:16:34;;;;;;;1.17;0.70;;;4.00;99.90;;;;;;5062805;28;20196;-72
2023/11/26 07:19:03;;;;;;;1.00;0.90;;;4.10;99.90;;;;;;5048682;28;20711;-72
2023/11/26 07:21:30;;;;;;;1.10;1.00;;;4.10;99.90;;;;;;5065004;28;20605;-72
2023/11/26 07:23:57;;;;;;;0.80;0.80;;;4.10;99.90;;;;;;5059421;28;20706;-72
2023/11/26 07:26:26;;;;;;;1.13;0.80;;;4.10;99.90;;;;;;5053202;28;20267;-68
2023/11/26 07:28:53;;;;;;;1.33;1.00;;;4.20;99.90;;;;;;5054355;28;20712;-71
2023/11/26 07:31:22;;;;;;;1.83;0.80;;;4.20;99.90;;;;;;5057595;28;20719;-70
2023/11/26 07:33:51;;;;;;;0.93;0.87;;;4.20;99.90;;;;;;5051398;28;20206;-70
2023/11/26 07:36:22;;;;;;;0.87;0.83;;;4.20;99.90;;;;;;5050981;28;20205;-71
2023/11/26 07:38:50;;;;;;;1.03;1.00;;;4.20;99.90;;;;;;5048519;28;20190;-70
2023/11/26 07:41:17;;;;;;;0.70;0.67;;;4.20;99.90;;;;;;5061762;28;20217;-71
2023/11/26 07:43:44;;;;;;;0.90;0.83;;;4.20;99.90;;;;;;5069305;28;20193;-70
2023/11/26 07:46:13;;;;;;;1.00;1.00;;;4.20;99.90;;;;;;5056586;28;20208;-71
2023/11/26 07:48:42;;;;;;;1.43;1.10;;;4.10;99.90;;;;;;5061526;28;20260;-70
2023/11/26 07:51:11;;;;;;;1.30;1.20;;;4.10;99.90;;;;;;5059650;28;20194;-71
2023/11/26 07:53:39;;;;;;;1.50;1.40;;;4.20;99.90;;;;;;5056178;28;20221;-71
2023/11/26 07:56:07;;;;;;;1.20;1.10;;;4.20;99.90;;;;;;5060277;28;20220;-68
2023/11/26 07:58:34;;;;;;;1.33;1.20;;;4.20;99.90;;;;;;5061810;28;20262;-68
2023/11/26 08:01:02;;;;;;;1.83;1.50;;;4.20;99.90;;;;;;5049562;28;20650;-68
2023/11/26 08:03:31;;;;;;;1.30;1.20;;;4.30;99.90;;;;;;5086037;28;20202;-68
2023/11/26 08:06:00;;;;;;;1.23;1.13;;;4.40;99.90;;;;;;5053495;28;20568;-70
2023/11/26 08:08:35;;;;;;;2.03;1.30;;;4.40;99.90;;;;;;5055194;28;20694;-70
2023/11/26 08:11:03;;;;;;;1.80;1.20;;;4.40;99.90;;;;;;5069803;28;20202;-70
2023/11/26 08:13:33;;;;;;;1.40;1.30;;;4.40;99.90;;;;;;5046174;28;20201;-71
2023/11/26 08:16:00;;;;;;;2.27;1.40;;;4.40;99.90;;;;;;5061079;28;20211;-71
2023/11/26 08:18:27;;;;;;;1.90;1.50;;;4.40;99.90;;;;;;5060023;28;20231;-72
2023/11/26 08:20:55;;;;;;;1.43;1.20;;;4.40;99.90;;;;;;5049603;28;20190;-71
2023/11/26 08:23:22;;;;;;;1.57;1.40;;;4.40;99.90;;;;;;5051271;28;20723;-72
2023/11/26 08:25:50;;;;;;;1.10;1.00;;;4.40;99.90;;;;;;5051661;28;20229;-72
2023/11/26 08:28:18;;;;;;;1.40;1.30;;;4.50;99.90;;;;;;5046844;28;20199;-72
2023/11/26 08:30:47;;;;;;;1.73;1.30;;;4.50;99.90;;;;;;5055404;28;20280;-72
2023/11/26 08:33:17;;;;;;;1.87;1.20;;;4.70;99.90;;;;;;5059868;28;20294;-72
2023/11/26 08:35:44;;;;;;;1.33;1.20;;;4.50;99.90;;;;;;5047101;28;20708;-72
2023/11/26 08:38:12;;;;;;;2.63;1.43;;;4.60;99.90;;;;;;5061071;28;20224;-72
2023/11/26 08:40:40;;;;;;;1.50;1.40;;;4.60;99.90;;;;;;5060416;28;20193;-72
2023/11/26 08:43:10;;;;;;;1.17;1.10;;;4.60;99.90;;;;;;5052334;28;20779;-72
2023/11/26 08:45:40;;;;;;;1.43;1.33;;;4.60;99.90;;;;;;5056592;28;20286;-72
2023/11/26 08:48:09;;;;;;;2.60;1.70;;;4.60;99.90;;;;;;5048202;28;20241;-72
2023/11/26 08:50:39;;;;;;;1.40;1.30;;;4.60;99.90;;;;;;5056206;28;20680;-70
2023/11/26 08:53:09;;;;;;;1.83;1.60;;;4.60;99.90;;;;;;5056048;28;20186;-71
2023/11/26 08:55:36;;;;;;;2.33;1.67;;;4.60;99.90;;;;;;5048418;28;20204;-71
2023/11/26 08:58:03;;;;;;;2.60;1.40;;;4.60;99.90;;;;;;5049123;28;20193;-71
2023/11/26 09:00:32;;;;;;;1.43;1.27;;;4.60;99.90;;;;;;5055250;28;20685;-71
2023/11/26 09:02:59;;;;;;;1.50;1.20;;;4.60;99.90;;;;;;5049209;28;20201;-70
2023/11/26 09:05:26;;;;;;;1.23;1.13;;;4.60;99.90;;;;;;5062172;28;20522;-71
2023/11/26 09:07:53;;;;;;;1.60;1.30;;;4.60;99.90;;;;;;5050611;28;20649;-71
2023/11/26 09:10:20;;;;;;;2.00;1.10;;;4.60;99.90;;;;;;5053413;28;20202;-71
2023/11/26 09:12:47;;;;;;;1.43;1.33;;;4.60;99.90;;;;;;5065154;28;20247;-70
2023/11/26 09:15:15;;;;;;;1.77;1.20;;;4.70;99.90;;;;;;5046723;28;20539;-72
2023/11/26 09:17:43;;;;;;;1.83;1.17;;;4.70;99.90;;;;;;5059942;28;20595;-70
2023/11/26 09:20:12;;;;;;;1.40;1.30;;;4.70;99.90;;;;;;5051940;28;20193;-73
2023/11/26 09:22:40;;;;;;;2.57;1.93;;;4.70;99.90;;;;;;5046002;28;20206;-71
2023/11/26 09:25:09;;;;;;;1.77;1.60;;;4.70;99.90;;;;;;5027800;28;20203;-72
2023/11/26 09:27:36;;;;;;;2.63;2.00;;;4.70;99.90;;;;;;5048599;28;20202;-72
2023/11/26 09:30:05;;;;;;;2.70;1.90;;;4.70;99.90;;;;;;5036980;28;20209;-72
2023/11/26 09:32:32;;;;;;;2.80;1.70;;;4.70;99.90;;;;;;5048169;28;20571;-72
2023/11/26 09:35:01;;;;;;;2.50;2.00;;;4.70;99.90;;;;;;5047332;28;20264;-72
2023/11/26 09:37:29;;;;;;;6.97;3.40;;;4.70;99.90;;;;;;5048188;28;20195;-72
2023/11/26 09:39:57;;;;;;;3.57;2.73;;;4.70;99.90;;;;;;5047916;28;20559;-70
2023/11/26 09:42:24;;;;;;;3.53;2.40;;;4.70;99.90;;;;;;5042829;28;20224;-69
2023/11/26 09:44:52;;;;;;;2.93;2.03;;;4.70;99.90;;;;;;5056114;28;20198;-69
2023/11/26 09:47:20;;;;;;;3.00;1.87;;;4.70;99.90;;;;;;5061592;28;20261;-69
2023/11/26 09:49:49;;;;;;;2.90;1.40;;;4.60;99.90;;;;;;5049097;28;20225;-71
2023/11/26 09:52:19;;;;;;;2.53;1.30;;;4.70;99.90;;;;;;5045484;28;20182;-69
2023/11/26 09:54:46;;;;;;;1.53;1.27;;;4.60;99.90;;;;;;5049797;28;20779;-70
2023/11/26 09:57:13;;;;;;;2.10;1.70;;;4.60;99.90;;;;;;5043798;28;20257;-70
2023/11/26 09:59:40;;;;;;;1.47;1.37;;;4.70;99.90;;;;;;5050948;28;20265;-70
2023/11/26 10:02:10;;;;;;;2.47;1.65;;;4.70;99.90;;;;;;5052197;28;20642;-70
2023/11/26 10:04:48;;;;;;;1.77;1.40;;;4.80;99.90;;;;;;5043262;28;20585;-69
2023/11/26 10:07:16;;;;;;;3.40;1.60;;;4.80;99.90;;;;;;5050359;28;20198;-69
2023/11/26 10:10:00;;;;;;;1.43;1.33;;;4.90;99.90;;;;;;5054671;28;20264;-70
2023/11/26 10:12:28;;;;;;;2.53;1.40;;;4.90;99.90;;;;;;5060150;28;20653;-70
2023/11/26 10:15:06;;;;;;;1.60;1.50;;;4.90;99.90;;;;;;5053536;28;20191;-69
2023/11/26 10:17:34;;;;;;;2.77;1.80;;;4.90;99.90;;;;;;5046018;28;20237;-70
2023/11/26 10:20:25;;;;;;;2.63;1.60;;;4.90;99.90;;;;;;5055243;28;20290;-69
2023/11/26 10:22:53;;;;;;;2.50;1.87;;;4.90;99.90;;;;;;5040183;28;20230;-70
2023/11/26 10:25:22;;;;;;;4.10;2.13;;;4.90;99.90;;;;;;5045377;28;20658;-70
2023/11/26 10:27:49;;;;;;;2.70;2.20;;;4.90;99.90;;;;;;5050581;28;20184;-70
2023/11/26 10:30:28;;;;;;;2.33;2.10;;;4.90;99.90;;;;;;5050216;28;20660;-70
2023/11/26 10:32:58;;;;;;;3.47;2.13;;;4.90;99.90;;;;;;5043273;28;20526;-70
2023/11/26 10:35:25;;;;;;;3.50;2.00;;;4.90;99.90;;;;;;5053775;28;20202;-70
2023/11/26 10:38:07;;;;;;;3.37;2.20;;;5.00;99.90;;;;;;5051731;28;20263;-70
2023/11/26 10:40:36;;;;;;;2.20;2.00;;;5.00;99.90;;;;;;5052594;28;20229;-71
2023/11/26 10:43:07;;;;;;;2.47;2.17;;;5.00;99.90;;;;;;5057924;28;20213;-70
2023/11/26 10:45:35;;;;;;;3.50;2.17;;;5.00;99.90;;;;;;5050517;28;20203;-70
2023/11/26 10:48:08;;;;;;;2.63;1.93;;;5.00;99.90;;;;;;5054265;28;20270;-70
2023/11/26 10:50:39;;;;;;;2.03;1.77;;;5.00;99.90;;;;;;5055292;28;20212;-70
2023/11/26 10:53:22;;;;;;;2.90;2.17;;;5.00;99.90;;;;;;5049856;28;20187;-70
2023/11/26 10:55:55;;;;;;;3.27;2.17;;;5.10;99.90;;;;;;5051849;28;20245;-70
2023/11/26 10:58:28;;;;;;;2.97;1.80;;;5.00;99.90;;;;;;5046369;28;20326;-70
2023/11/26 11:00:58;;;;;;;2.17;1.67;;;5.10;99.90;;;;;;5052970;28;20560;-70
2023/11/26 11:03:26;;;;;;;2.10;1.80;;;5.10;99.90;;;;;;5060670;28;20207;-70
2023/11/26 11:05:54;;;;;;;6.27;2.30;;;5.20;99.90;;;;;;5039361;28;20811;-70
2023/11/26 11:08:21;;;;;;;3.00;2.20;;;5.20;99.90;;;;;;5059717;28;20705;-70
2023/11/26 11:10:59;;;;;;;2.97;1.87;;;5.20;99.90;;;;;;5059524;28;20202;-70
2023/11/26 11:13:28;;;;;;;2.63;1.93;;;5.30;99.90;;;;;;5049205;28;20636;-69
2023/11/26 11:15:56;;;;;;;2.63;2.07;;;5.30;99.90;;;;;;5083796;28;20202;-69
2023/11/26 11:18:44;;;;;;;2.40;2.20;;;5.40;99.90;;;;;;5048920;28;20218;-70
2023/11/26 11:21:12;;;;;;;3.87;1.80;;;5.40;99.90;;;;;;5042120;28;20620;-69
2023/11/26 11:23:41;;;;;;;2.07;1.87;;;5.50;99.90;;;;;;5055695;28;20569;-70
2023/11/26 11:26:12;;;;;;;2.27;1.80;;;5.50;99.90;;;;;;5045084;28;20624;-70
2023/11/26 11:28:44;;;;;;;3.00;1.63;;;5.50;99.90;;;;;;5050294;28;20195;-70
2023/11/26 11:31:12;;;;;;;1.77;1.50;;;5.60;99.90;;;;;;5054506;28;20199;-71
2023/11/26 11:34:15;;;;;;;2.13;1.63;;;5.80;99.90;;;;;;5045767;28;20203;-70
2023/11/26 11:36:56;;;;;;;1.67;1.57;;;6.00;99.90;;;;;;5039624;28;20202;-69
2023/11/26 11:39:26;;;;;;;1.63;1.50;;;6.10;99.90;;;;;;5051988;28;20273;-71
2023/11/26 11:42:15;;;;;;;2.13;1.40;;;6.10;99.90;;;;;;5048759;28;20564;-70
2023/11/26 11:44:44;;;;;;;2.40;1.57;;;6.10;99.90;;;;;;5050058;28;20307;-69
2023/11/26 11:47:12;;;;;;;1.63;1.50;;;6.20;99.90;;;;;;5045044;28;20527;-70
2023/11/26 11:50:06;;;;;;;1.23;1.10;;;6.20;99.90;;;;;;5050749;28;20755;-71
2023/11/26 11:52:33;;;;;;;2.57;1.50;;;6.20;99.90;;;;;;5053778;28;20283;-71
2023/11/26 11:55:28;;;;;;;2.53;1.93;;;6.20;99.90;;;;;;5044088;28;20197;-70
2023/11/26 11:57:57;;;;;;;2.00;1.27;;;6.20;99.90;;;;;;5046037;28;20488;-69
2023/11/26 12:00:24;;;;;;;1.50;1.40;;;6.30;99.90;;;;;;5047387;28;20556;-69
2023/11/26 12:02:52;;;;;;;1.40;1.30;;;6.40;99.90;;;;;;5052291;28;20700;-69
2023/11/26 12:05:24;;;;;;;1.90;1.70;;;6.40;99.90;;;;;;5054000;28;20231;-69
2023/11/26 12:07:52;;;;;;;1.50;1.17;;;6.40;99.90;;;;;;5048650;28;20263;-69
2023/11/26 12:10:24;;;;;;;1.90;1.70;;;6.40;99.90;;;;;;5048109;28;20194;-68
2023/11/26 12:13:03;;;;;;;3.67;1.90;;;6.40;99.90;;;;;;5056918;28;20248;-69
2023/11/26 12:15:31;;;;;;;1.50;1.40;;;6.30;99.90;;;;;;5047325;28;20199;-68
2023/11/26 12:18:00;;;;;;;2.40;1.93;;;6.20;99.90;;;;;;5046499;28;20495;-69
2023/11/26 12:20:27;;;;;;;2.07;1.87;;;6.20;99.90;;;;;;5049037;28;20195;-70
2023/11/26 12:22:55;;;;;;;2.00;1.80;;;6.10;99.90;;;;;;5045048;28;20715;-69
2023/11/26 12:25:24;;;;;;;2.43;1.70;;;6.10;99.90;;;;;;5052232;28;20196;-69
2023/11/26 12:28:04;;;;;;;1.70;1.53;;;6.20;99.90;;;;;;5051920;28;20205;-68
2023/11/26 12:30:32;;;;;;;1.60;1.50;;;6.10;99.90;;;;;;5046837;28;20193;-68
2023/11/26 12:33:01;;;;;;;2.73;1.60;;;6.00;99.90;;;;;;5038476;28;20190;-69
2023/11/26 12:35:30;;;;;;;2.27;2.07;;;6.00;99.90;;;;;;5047173;28;20279;-69
2023/11/26 12:37:59;;;;;;;2.93;1.93;;;5.90;99.90;;;;;;5057755;28;20335;-69
2023/11/26 12:40:28;;;;;;;2.57;1.80;;;5.90;99.90;;;;;;5050767;28;20204;-68
2023/11/26 12:42:55;;;;;;;3.20;1.97;;;5.90;99.90;;;;;;5049689;28;20224;-68
2023/11/26 12:45:24;;;;;;;2.50;1.60;;;5.90;99.90;;;;;;5049262;28;20536;-68
2023/11/26 12:47:53;;;;;;;1.83;1.70;;;5.80;99.90;;;;;;5051407;28;20233;-68
2023/11/26 12:50:21;;;;;;;2.10;1.70;;;5.80;99.90;;;;;;5045475;28;20655;-69
2023/11/26 12:52:49;;;;;;;2.60;1.90;;;5.70;99.90;;;;;;5052832;28;20209;-69
2023/11/26 12:55:17;;;;;;;3.50;1.53;;;5.70;99.90;;;;;;5051235;28;20199;-69
2023/11/26 12:57:46;;;;;;;1.83;1.40;;;5.70;99.90;;;;;;5044933;28;20209;-69
2023/11/26 13:00:15;;;;;;;2.80;1.30;;;5.80;99.90;;;;;;5057280;28;20202;-68
2023/11/26 13:02:45;;;;;;;1.43;1.33;;;5.70;99.90;;;;;;5055569;28;20258;-69
2023/11/26 13:05:28;;;;;;;2.67;1.83;;;5.70;99.90;;;;;;5047723;28;20200;-68
2023/11/26 13:07:56;;;;;;;2.67;1.83;;;5.70;99.90;;;;;;5057974;28;20258;-69
2023/11/26 13:10:41;;;;;;;1.67;1.50;;;5.70;99.90;;;;;;5043696;28;20745;-68
2023/11/26 13:13:11;;;;;;;1.20;1.10;;;5.60;99.90;;;;;;5048965;28;20200;-68